sensor_id;sensor_type;location;lat;lon;timestamp;P1;durP1;ratioP1;P2;durP2;ratioP2
25327;SDS011;13279;51.300;12.394;2022-11-30T00:00:28;23.67;;;12.40;;
25327;SDS011;13279;51.300;12.394;2022-11-30T00:02:55;23.57;;;11.67;;
25327;SDS011;13279;51.300;12.394;2022-11-30T00:05:23;24.50;;;12.63;;
25327;SDS011;13279;51.300;12.394;2022-11-30T00:07:51;32.50;;;13.27;;
25327;SDS011;13279;51.300;12.394;2022-11-30T00:10:20;25.80;;;13.27;;
25327;SDS011;13279;51.300;12.394;2022-11-30T00:12:49;25.17;;;12.33;;
25327;SDS011;13279;51.300;12.394;2022-11-30T00:15:17;23.30;;;12.37;;
25327;SDS011;13279;51.300;12.394;2022-11-30T00:17:45;23.60;;;12.60;;
25327;SDS011;13279;51.300;12.394;2022-11-30T00:20:13;26.90;;;12.83;;
25327;SDS011;13279;51.300;12.394;2022-11-30T00:22:42;23.77;;;12.37;;
25327;SDS011;13279;51.300;12.394;2022-11-30T00:25:09;26.63;;;12.33;;
25327;SDS011;13279;51.300;12.394;2022-11-30T00:27:36;27.27;;;12.37;;
25327;SDS011;13279;51.300;12.394;2022-11-30T00:30:06;22.93;;;11.87;;
25327;SDS011;13279;51.300;12.394;2022-11-30T00:32:34;22.50;;;11.67;;
25327;SDS011;13279;51.300;12.394;2022-11-30T00:35:02;23.77;;;12.20;;
25327;SDS011;13279;51.300;12.394;2022-11-30T00:37:30;25.40;;;12.33;;
25327;SDS011;13279;51.300;12.394;2022-11-30T00:39:57;28.87;;;13.27;;
25327;SDS011;13279;51.300;12.394;2022-11-30T00:42:25;24.57;;;12.87;;
25327;SDS011;13279;51.300;12.394;2022-11-30T00:44:52;21.93;;;11.97;;
25327;SDS011;13279;51.300;12.394;2022-11-30T00:47:21;25.67;;;12.20;;
25327;SDS011;13279;51.300;12.394;2022-11-30T00:49:49;26.53;;;12.73;;
25327;SDS011;13279;51.300;12.394;2022-11-30T00:52:16;23.43;;;12.80;;
25327;SDS011;13279;51.300;12.394;2022-11-30T00:54:44;27.27;;;13.20;;
25327;SDS011;13279;51.300;12.394;2022-11-30T00:57:11;25.33;;;12.77;;
25327;SDS011;13279;51.300;12.394;2022-11-30T00:59:39;24.93;;;12.33;;
25327;SDS011;13279;51.300;12.394;2022-11-30T01:02:06;26.60;;;12.73;;
25327;SDS011;13279;51.300;12.394;2022-11-30T01:04:35;21.47;;;13.20;;
25327;SDS011;13279;51.300;12.394;2022-11-30T01:07:03;24.53;;;13.77;;
25327;SDS011;13279;51.300;12.394;2022-11-30T01:09:31;24.67;;;13.23;;
25327;SDS011;13279;51.300;12.394;2022-11-30T01:11:58;24.77;;;12.40;;
25327;SDS011;13279;51.300;12.394;2022-11-30T01:14:26;24.83;;;12.60;;
25327;SDS011;13279;51.300;12.394;2022-11-30T01:16:54;28.90;;;13.10;;
25327;SDS011;13279;51.300;12.394;2022-11-30T01:19:22;25.70;;;13.27;;
25327;SDS011;13279;51.300;12.394;2022-11-30T01:21:51;23.77;;;12.67;;
25327;SDS011;13279;51.300;12.394;2022-11-30T01:24:19;31.50;;;12.93;;
25327;SDS011;13279;51.300;12.394;2022-11-30T01:26:47;30.50;;;12.63;;
25327;SDS011;13279;51.300;12.394;2022-11-30T01:29:14;25.87;;;13.17;;
25327;SDS011;13279;51.300;12.394;2022-11-30T01:31:42;24.87;;;12.90;;
25327;SDS011;13279;51.300;12.394;2022-11-30T01:34:10;25.07;;;12.50;;
25327;SDS011;13279;51.300;12.394;2022-11-30T01:36:37;31.20;;;14.13;;
25327;SDS011;13279;51.300;12.394;2022-11-30T01:39:07;23.53;;;12.57;;
25327;SDS011;13279;51.300;12.394;2022-11-30T01:41:35;29.43;;;13.50;;
25327;SDS011;13279;51.300;12.394;2022-11-30T01:47:15;27.90;;;13.17;;
25327;SDS011;13279;51.300;12.394;2022-11-30T01:49:47;27.73;;;13.70;;
25327;SDS011;13279;51.300;12.394;2022-11-30T01:52:18;26.23;;;13.30;;
25327;SDS011;13279;51.300;12.394;2022-11-30T01:54:50;22.00;;;11.73;;
25327;SDS011;13279;51.300;12.394;2022-11-30T01:57:21;23.23;;;12.50;;
25327;SDS011;13279;51.300;12.394;2022-11-30T01:59:53;27.80;;;13.30;;
25327;SDS011;13279;51.300;12.394;2022-11-30T02:02:25;28.63;;;12.87;;
25327;SDS011;13279;51.300;12.394;2022-11-30T02:04:57;27.20;;;12.73;;
25327;SDS011;13279;51.300;12.394;2022-11-30T02:07:26;29.13;;;12.83;;
25327;SDS011;13279;51.300;12.394;2022-11-30T02:09:55;24.20;;;12.63;;
25327;SDS011;13279;51.300;12.394;2022-11-30T02:12:24;24.20;;;12.37;;
25327;SDS011;13279;51.300;12.394;2022-11-30T02:14:58;25.57;;;13.00;;
25327;SDS011;13279;51.300;12.394;2022-11-30T02:17:35;26.03;;;13.20;;
25327;SDS011;13279;51.300;12.394;2022-11-30T02:20:18;27.23;;;13.10;;
25327;SDS011;13279;51.300;12.394;2022-11-30T02:23:07;24.57;;;12.07;;
25327;SDS011;13279;51.300;12.394;2022-11-30T02:25:53;23.17;;;12.37;;
25327;SDS011;13279;51.300;12.394;2022-11-30T02:28:43;28.90;;;12.43;;
25327;SDS011;13279;51.300;12.394;2022-11-30T02:31:47;28.67;;;14.27;;
25327;SDS011;13279;51.300;12.394;2022-11-30T02:34:20;32.73;;;13.07;;
25327;SDS011;13279;51.300;12.394;2022-11-30T02:36:51;27.17;;;13.00;;
25327;SDS011;13279;51.300;12.394;2022-11-30T02:39:19;26.10;;;12.07;;
25327;SDS011;13279;51.300;12.394;2022-11-30T02:41:48;27.00;;;12.60;;
25327;SDS011;13279;51.300;12.394;2022-11-30T02:44:17;23.37;;;11.93;;
25327;SDS011;13279;51.300;12.394;2022-11-30T02:46:53;26.60;;;12.60;;
25327;SDS011;13279;51.300;12.394;2022-11-30T02:49:29;29.20;;;12.57;;
25327;SDS011;13279;51.300;12.394;2022-11-30T02:52:01;26.70;;;12.13;;
25327;SDS011;13279;51.300;12.394;2022-11-30T02:54:31;23.20;;;12.03;;
25327;SDS011;13279;51.300;12.394;2022-11-30T02:56:59;23.23;;;12.63;;
25327;SDS011;13279;51.300;12.394;2022-11-30T02:59:28;28.27;;;13.60;;
25327;SDS011;13279;51.300;12.394;2022-11-30T03:01:56;26.53;;;12.90;;
25327;SDS011;13279;51.300;12.394;2022-11-30T03:04:23;28.17;;;13.53;;
25327;SDS011;13279;51.300;12.394;2022-11-30T03:06:51;29.97;;;13.97;;
25327;SDS011;13279;51.300;12.394;2022-11-30T03:09:19;24.03;;;13.10;;
25327;SDS011;13279;51.300;12.394;2022-11-30T03:11:46;25.50;;;13.67;;
25327;SDS011;13279;51.300;12.394;2022-11-30T03:14:14;27.13;;;13.17;;
25327;SDS011;13279;51.300;12.394;2022-11-30T03:16:43;22.77;;;11.70;;
25327;SDS011;13279;51.300;12.394;2022-11-30T03:19:10;23.93;;;12.33;;
25327;SDS011;13279;51.300;12.394;2022-11-30T03:21:38;22.00;;;12.40;;
25327;SDS011;13279;51.300;12.394;2022-11-30T03:24:06;26.27;;;12.03;;
25327;SDS011;13279;51.300;12.394;2022-11-30T03:26:33;24.93;;;12.70;;
25327;SDS011;13279;51.300;12.394;2022-11-30T03:29:01;25.50;;;13.07;;
25327;SDS011;13279;51.300;12.394;2022-11-30T03:31:28;32.30;;;13.30;;
25327;SDS011;13279;51.300;12.394;2022-11-30T03:33:57;25.97;;;13.07;;
25327;SDS011;13279;51.300;12.394;2022-11-30T03:36:25;25.87;;;12.63;;
25327;SDS011;13279;51.300;12.394;2022-11-30T03:38:52;22.07;;;11.97;;
25327;SDS011;13279;51.300;12.394;2022-11-30T03:41:20;24.03;;;11.93;;
25327;SDS011;13279;51.300;12.394;2022-11-30T03:43:47;25.00;;;12.20;;
25327;SDS011;13279;51.300;12.394;2022-11-30T03:46:14;27.90;;;13.10;;
25327;SDS011;13279;51.300;12.394;2022-11-30T03:48:42;25.77;;;12.90;;
25327;SDS011;13279;51.300;12.394;2022-11-30T03:51:12;30.87;;;13.07;;
25327;SDS011;13279;51.300;12.394;2022-11-30T03:53:39;27.23;;;12.40;;
25327;SDS011;13279;51.300;12.394;2022-11-30T03:56:07;24.97;;;11.87;;
25327;SDS011;13279;51.300;12.394;2022-11-30T03:58:36;22.90;;;12.27;;
25327;SDS011;13279;51.300;12.394;2022-11-30T04:01:05;27.03;;;13.13;;
25327;SDS011;13279;51.300;12.394;2022-11-30T04:03:34;27.73;;;12.80;;
25327;SDS011;13279;51.300;12.394;2022-11-30T04:06:01;24.20;;;13.07;;
25327;SDS011;13279;51.300;12.394;2022-11-30T04:08:31;25.73;;;12.87;;
25327;SDS011;13279;51.300;12.394;2022-11-30T04:10:59;24.73;;;13.20;;
25327;SDS011;13279;51.300;12.394;2022-11-30T04:13:28;28.80;;;14.43;;
25327;SDS011;13279;51.300;12.394;2022-11-30T04:15:57;27.40;;;12.73;;
25327;SDS011;13279;51.300;12.394;2022-11-30T04:18:25;29.30;;;13.67;;
25327;SDS011;13279;51.300;12.394;2022-11-30T04:20:54;31.83;;;14.30;;
25327;SDS011;13279;51.300;12.394;2022-11-30T04:23:23;33.60;;;13.63;;
25327;SDS011;13279;51.300;12.394;2022-11-30T04:25:52;25.70;;;12.63;;
25327;SDS011;13279;51.300;12.394;2022-11-30T04:28:20;26.60;;;13.23;;
25327;SDS011;13279;51.300;12.394;2022-11-30T04:30:47;29.83;;;13.50;;
25327;SDS011;13279;51.300;12.394;2022-11-30T04:33:15;27.90;;;13.93;;
25327;SDS011;13279;51.300;12.394;2022-11-30T04:35:45;27.77;;;13.43;;
25327;SDS011;13279;51.300;12.394;2022-11-30T04:38:17;29.33;;;12.80;;
25327;SDS011;13279;51.300;12.394;2022-11-30T04:40:44;25.50;;;12.67;;
25327;SDS011;13279;51.300;12.394;2022-11-30T04:43:13;26.63;;;13.37;;
25327;SDS011;13279;51.300;12.394;2022-11-30T04:45:41;29.03;;;13.17;;
25327;SDS011;13279;51.300;12.394;2022-11-30T04:48:09;26.50;;;12.67;;
25327;SDS011;13279;51.300;12.394;2022-11-30T04:50:37;26.30;;;13.90;;
25327;SDS011;13279;51.300;12.394;2022-11-30T04:53:04;29.77;;;13.70;;
25327;SDS011;13279;51.300;12.394;2022-11-30T04:55:32;28.53;;;13.63;;
25327;SDS011;13279;51.300;12.394;2022-11-30T04:57:59;25.27;;;12.67;;
25327;SDS011;13279;51.300;12.394;2022-11-30T05:00:28;25.27;;;11.93;;
25327;SDS011;13279;51.300;12.394;2022-11-30T05:02:55;27.73;;;13.43;;
25327;SDS011;13279;51.300;12.394;2022-11-30T05:05:23;27.40;;;13.20;;
25327;SDS011;13279;51.300;12.394;2022-11-30T05:07:53;33.00;;;14.83;;
25327;SDS011;13279;51.300;12.394;2022-11-30T05:10:22;24.53;;;12.60;;
25327;SDS011;13279;51.300;12.394;2022-11-30T05:12:50;26.60;;;13.43;;
25327;SDS011;13279;51.300;12.394;2022-11-30T05:15:17;24.40;;;13.40;;
25327;SDS011;13279;51.300;12.394;2022-11-30T05:17:46;30.57;;;13.80;;
25327;SDS011;13279;51.300;12.394;2022-11-30T05:20:14;30.27;;;13.67;;
25327;SDS011;13279;51.300;12.394;2022-11-30T05:22:41;25.00;;;13.53;;
25327;SDS011;13279;51.300;12.394;2022-11-30T05:25:09;22.43;;;12.50;;
25327;SDS011;13279;51.300;12.394;2022-11-30T05:27:37;29.57;;;12.87;;
25327;SDS011;13279;51.300;12.394;2022-11-30T05:30:04;26.67;;;13.17;;
25327;SDS011;13279;51.300;12.394;2022-11-30T05:32:33;27.47;;;12.50;;
25327;SDS011;13279;51.300;12.394;2022-11-30T05:35:02;29.00;;;13.90;;
25327;SDS011;13279;51.300;12.394;2022-11-30T05:37:30;30.60;;;14.03;;
25327;SDS011;13279;51.300;12.394;2022-11-30T05:39:58;28.90;;;13.53;;
25327;SDS011;13279;51.300;12.394;2022-11-30T05:42:25;27.03;;;14.00;;
25327;SDS011;13279;51.300;12.394;2022-11-30T05:44:52;26.83;;;13.43;;
25327;SDS011;13279;51.300;12.394;2022-11-30T05:47:20;28.03;;;14.33;;
25327;SDS011;13279;51.300;12.394;2022-11-30T05:49:47;34.13;;;13.37;;
25327;SDS011;13279;51.300;12.394;2022-11-30T05:52:16;25.40;;;13.00;;
25327;SDS011;13279;51.300;12.394;2022-11-30T05:54:44;29.70;;;14.70;;
25327;SDS011;13279;51.300;12.394;2022-11-30T05:57:11;25.50;;;12.80;;
25327;SDS011;13279;51.300;12.394;2022-11-30T05:59:38;30.47;;;14.40;;
25327;SDS011;13279;51.300;12.394;2022-11-30T06:02:06;28.40;;;13.27;;
25327;SDS011;13279;51.300;12.394;2022-11-30T06:04:35;28.60;;;13.67;;
25327;SDS011;13279;51.300;12.394;2022-11-30T06:07:02;27.83;;;13.70;;
25327;SDS011;13279;51.300;12.394;2022-11-30T06:09:31;29.53;;;13.97;;
25327;SDS011;13279;51.300;12.394;2022-11-30T06:11:58;26.87;;;13.07;;
25327;SDS011;13279;51.300;12.394;2022-11-30T06:14:26;25.30;;;13.43;;
25327;SDS011;13279;51.300;12.394;2022-11-30T06:16:53;29.33;;;13.60;;
25327;SDS011;13279;51.300;12.394;2022-11-30T06:19:39;26.50;;;13.17;;
25327;SDS011;13279;51.300;12.394;2022-11-30T06:22:07;29.10;;;14.13;;
25327;SDS011;13279;51.300;12.394;2022-11-30T06:24:36;33.17;;;14.17;;
25327;SDS011;13279;51.300;12.394;2022-11-30T06:27:03;29.67;;;14.13;;
25327;SDS011;13279;51.300;12.394;2022-11-30T06:29:31;27.37;;;14.47;;
25327;SDS011;13279;51.300;12.394;2022-11-30T06:31:58;24.40;;;13.17;;
25327;SDS011;13279;51.300;12.394;2022-11-30T06:34:25;34.73;;;14.97;;
25327;SDS011;13279;51.300;12.394;2022-11-30T06:36:55;29.07;;;14.27;;
25327;SDS011;13279;51.300;12.394;2022-11-30T06:39:23;32.17;;;14.50;;
25327;SDS011;13279;51.300;12.394;2022-11-30T06:41:52;29.30;;;14.17;;
25327;SDS011;13279;51.300;12.394;2022-11-30T06:44:20;39.37;;;15.70;;
25327;SDS011;13279;51.300;12.394;2022-11-30T06:46:47;35.60;;;15.23;;
25327;SDS011;13279;51.300;12.394;2022-11-30T06:49:15;31.03;;;14.70;;
25327;SDS011;13279;51.300;12.394;2022-11-30T06:51:42;31.20;;;14.77;;
25327;SDS011;13279;51.300;12.394;2022-11-30T06:54:10;30.77;;;14.87;;
25327;SDS011;13279;51.300;12.394;2022-11-30T06:56:37;38.07;;;16.37;;
25327;SDS011;13279;51.300;12.394;2022-11-30T06:59:06;40.50;;;16.20;;
25327;SDS011;13279;51.300;12.394;2022-11-30T07:01:34;34.97;;;15.77;;
25327;SDS011;13279;51.300;12.394;2022-11-30T07:04:02;38.60;;;16.17;;
25327;SDS011;13279;51.300;12.394;2022-11-30T07:06:29;40.17;;;16.90;;
25327;SDS011;13279;51.300;12.394;2022-11-30T07:08:57;38.83;;;18.20;;
25327;SDS011;13279;51.300;12.394;2022-11-30T07:11:24;45.73;;;18.20;;
25327;SDS011;13279;51.300;12.394;2022-11-30T07:13:52;37.57;;;17.30;;
25327;SDS011;13279;51.300;12.394;2022-11-30T07:16:21;43.90;;;18.20;;
25327;SDS011;13279;51.300;12.394;2022-11-30T07:18:48;41.40;;;18.63;;
25327;SDS011;13279;51.300;12.394;2022-11-30T07:21:16;45.73;;;18.90;;
25327;SDS011;13279;51.300;12.394;2022-11-30T07:23:43;44.00;;;19.13;;
25327;SDS011;13279;51.300;12.394;2022-11-30T07:26:28;46.13;;;18.67;;
25327;SDS011;13279;51.300;12.394;2022-11-30T07:28:56;46.90;;;17.63;;
25327;SDS011;13279;51.300;12.394;2022-11-30T07:31:25;46.33;;;19.40;;
25327;SDS011;13279;51.300;12.394;2022-11-30T07:33:55;49.17;;;19.53;;
25327;SDS011;13279;51.300;12.394;2022-11-30T07:36:23;40.83;;;17.83;;
25327;SDS011;13279;51.300;12.394;2022-11-30T07:38:52;39.27;;;18.10;;
25327;SDS011;13279;51.300;12.394;2022-11-30T07:41:19;51.33;;;20.70;;
25327;SDS011;13279;51.300;12.394;2022-11-30T07:43:46;45.67;;;18.90;;
25327;SDS011;13279;51.300;12.394;2022-11-30T07:46:14;47.43;;;19.33;;
25327;SDS011;13279;51.300;12.394;2022-11-30T07:48:44;44.93;;;20.20;;
25327;SDS011;13279;51.300;12.394;2022-11-30T07:51:12;46.93;;;20.27;;
25327;SDS011;13279;51.300;12.394;2022-11-30T07:53:41;48.27;;;20.27;;
25327;SDS011;13279;51.300;12.394;2022-11-30T07:56:10;56.77;;;20.93;;
25327;SDS011;13279;51.300;12.394;2022-11-30T07:58:39;54.80;;;20.67;;
25327;SDS011;13279;51.300;12.394;2022-11-30T08:01:08;49.47;;;22.40;;
25327;SDS011;13279;51.300;12.394;2022-11-30T08:03:36;44.97;;;19.57;;
25327;SDS011;13279;51.300;12.394;2022-11-30T08:06:06;52.43;;;21.00;;
25327;SDS011;13279;51.300;12.394;2022-11-30T08:08:37;59.97;;;20.93;;
25327;SDS011;13279;51.300;12.394;2022-11-30T08:11:06;56.27;;;21.93;;
25327;SDS011;13279;51.300;12.394;2022-11-30T08:13:35;48.67;;;20.77;;
25327;SDS011;13279;51.300;12.394;2022-11-30T08:16:04;46.10;;;19.73;;
25327;SDS011;13279;51.300;12.394;2022-11-30T08:18:33;52.50;;;20.87;;
25327;SDS011;13279;51.300;12.394;2022-11-30T08:21:03;53.57;;;21.57;;
25327;SDS011;13279;51.300;12.394;2022-11-30T08:23:35;48.70;;;20.57;;
25327;SDS011;13279;51.300;12.394;2022-11-30T08:26:04;53.80;;;20.50;;
25327;SDS011;13279;51.300;12.394;2022-11-30T08:28:32;50.57;;;21.43;;
25327;SDS011;13279;51.300;12.394;2022-11-30T08:31:00;47.33;;;22.17;;
25327;SDS011;13279;51.300;12.394;2022-11-30T08:33:30;57.17;;;23.60;;
25327;SDS011;13279;51.300;12.394;2022-11-30T08:36:05;55.60;;;20.80;;
25327;SDS011;13279;51.300;12.394;2022-11-30T08:38:34;50.97;;;21.93;;
25327;SDS011;13279;51.300;12.394;2022-11-30T08:41:01;56.23;;;21.90;;
25327;SDS011;13279;51.300;12.394;2022-11-30T08:43:30;57.03;;;22.30;;
25327;SDS011;13279;51.300;12.394;2022-11-30T08:45:58;54.60;;;22.30;;
25327;SDS011;13279;51.300;12.394;2022-11-30T08:48:27;61.53;;;22.53;;
25327;SDS011;13279;51.300;12.394;2022-11-30T08:51:00;54.70;;;21.77;;
25327;SDS011;13279;51.300;12.394;2022-11-30T08:53:35;52.97;;;21.70;;
25327;SDS011;13279;51.300;12.394;2022-11-30T08:56:03;63.40;;;24.77;;
25327;SDS011;13279;51.300;12.394;2022-11-30T08:58:33;54.33;;;22.67;;
25327;SDS011;13279;51.300;12.394;2022-11-30T09:01:05;56.27;;;22.87;;
25327;SDS011;13279;51.300;12.394;2022-11-30T09:03:33;55.47;;;21.87;;
25327;SDS011;13279;51.300;12.394;2022-11-30T09:06:05;50.70;;;21.73;;
25327;SDS011;13279;51.300;12.394;2022-11-30T09:08:36;60.50;;;23.60;;
25327;SDS011;13279;51.300;12.394;2022-11-30T09:11:08;49.93;;;22.33;;
25327;SDS011;13279;51.300;12.394;2022-11-30T09:13:42;56.20;;;22.23;;
25327;SDS011;13279;51.300;12.394;2022-11-30T09:16:14;57.97;;;22.93;;
25327;SDS011;13279;51.300;12.394;2022-11-30T09:18:43;58.13;;;21.80;;
25327;SDS011;13279;51.300;12.394;2022-11-30T09:21:11;52.37;;;22.83;;
25327;SDS011;13279;51.300;12.394;2022-11-30T09:23:41;56.47;;;22.27;;
25327;SDS011;13279;51.300;12.394;2022-11-30T09:26:11;53.87;;;23.13;;
25327;SDS011;13279;51.300;12.394;2022-11-30T09:28:40;52.07;;;21.53;;
25327;SDS011;13279;51.300;12.394;2022-11-30T09:31:09;56.30;;;23.57;;
25327;SDS011;13279;51.300;12.394;2022-11-30T09:33:39;53.83;;;22.00;;
25327;SDS011;13279;51.300;12.394;2022-11-30T09:36:07;57.97;;;22.17;;
25327;SDS011;13279;51.300;12.394;2022-11-30T09:38:36;50.63;;;23.33;;
25327;SDS011;13279;51.300;12.394;2022-11-30T09:41:09;53.57;;;22.83;;
25327;SDS011;13279;51.300;12.394;2022-11-30T09:43:50;56.07;;;22.00;;
25327;SDS011;13279;51.300;12.394;2022-11-30T09:46:28;49.23;;;21.40;;
25327;SDS011;13279;51.300;12.394;2022-11-30T09:49:03;57.90;;;22.70;;
25327;SDS011;13279;51.300;12.394;2022-11-30T09:51:38;48.70;;;21.27;;
25327;SDS011;13279;51.300;12.394;2022-11-30T09:54:10;48.37;;;21.43;;
25327;SDS011;13279;51.300;12.394;2022-11-30T09:56:43;51.37;;;22.20;;
25327;SDS011;13279;51.300;12.394;2022-11-30T09:59:13;52.23;;;22.77;;
25327;SDS011;13279;51.300;12.394;2022-11-30T10:01:45;59.50;;;22.97;;
25327;SDS011;13279;51.300;12.394;2022-11-30T10:04:19;50.80;;;21.53;;
25327;SDS011;13279;51.300;12.394;2022-11-30T10:06:55;50.93;;;21.47;;
25327;SDS011;13279;51.300;12.394;2022-11-30T10:09:36;62.70;;;22.13;;
25327;SDS011;13279;51.300;12.394;2022-11-30T10:12:14;54.07;;;23.53;;
25327;SDS011;13279;51.300;12.394;2022-11-30T10:15:02;51.83;;;21.37;;
25327;SDS011;13279;51.300;12.394;2022-11-30T10:17:38;47.83;;;20.13;;
25327;SDS011;13279;51.300;12.394;2022-11-30T10:20:21;48.53;;;20.53;;
25327;SDS011;13279;51.300;12.394;2022-11-30T10:23:10;47.23;;;21.40;;
25327;SDS011;13279;51.300;12.394;2022-11-30T10:25:50;51.27;;;21.77;;
25327;SDS011;13279;51.300;12.394;2022-11-30T10:28:25;55.53;;;21.73;;
25327;SDS011;13279;51.300;12.394;2022-11-30T10:30:59;54.37;;;22.93;;
25327;SDS011;13279;51.300;12.394;2022-11-30T10:33:29;49.57;;;22.47;;
25327;SDS011;13279;51.300;12.394;2022-11-30T10:36:04;49.27;;;20.03;;
25327;SDS011;13279;51.300;12.394;2022-11-30T10:38:38;50.33;;;21.47;;
25327;SDS011;13279;51.300;12.394;2022-11-30T10:41:10;51.47;;;20.63;;
25327;SDS011;13279;51.300;12.394;2022-11-30T10:43:43;54.30;;;21.77;;
25327;SDS011;13279;51.300;12.394;2022-11-30T10:46:17;49.43;;;20.40;;
25327;SDS011;13279;51.300;12.394;2022-11-30T10:48:48;45.57;;;21.27;;
25327;SDS011;13279;51.300;12.394;2022-11-30T10:51:20;49.13;;;20.77;;
25327;SDS011;13279;51.300;12.394;2022-11-30T10:53:48;57.23;;;22.00;;
25327;SDS011;13279;51.300;12.394;2022-11-30T10:56:18;49.93;;;20.50;;
25327;SDS011;13279;51.300;12.394;2022-11-30T10:58:49;49.27;;;21.13;;
25327;SDS011;13279;51.300;12.394;2022-11-30T11:01:30;45.73;;;20.23;;
25327;SDS011;13279;51.300;12.394;2022-11-30T11:04:06;42.77;;;20.20;;
25327;SDS011;13279;51.300;12.394;2022-11-30T11:06:37;44.50;;;20.97;;
25327;SDS011;13279;51.300;12.394;2022-11-30T11:09:23;45.20;;;19.50;;
25327;SDS011;13279;51.300;12.394;2022-11-30T11:12:01;42.40;;;20.17;;
25327;SDS011;13279;51.300;12.394;2022-11-30T11:14:31;45.07;;;19.87;;
25327;SDS011;13279;51.300;12.394;2022-11-30T11:19:39;41.97;;;19.57;;
25327;SDS011;13279;51.300;12.394;2022-11-30T11:22:13;43.53;;;18.60;;
25327;SDS011;13279;51.300;12.394;2022-11-30T11:24:43;39.97;;;18.60;;
25327;SDS011;13279;51.300;12.394;2022-11-30T11:27:18;47.07;;;20.03;;
25327;SDS011;13279;51.300;12.394;2022-11-30T11:29:57;47.57;;;20.10;;
25327;SDS011;13279;51.300;12.394;2022-11-30T11:32:28;45.67;;;19.57;;
25327;SDS011;13279;51.300;12.394;2022-11-30T11:34:56;39.30;;;17.87;;
25327;SDS011;13279;51.300;12.394;2022-11-30T11:37:24;46.87;;;19.03;;
25327;SDS011;13279;51.300;12.394;2022-11-30T11:39:56;43.73;;;19.77;;
25327;SDS011;13279;51.300;12.394;2022-11-30T11:42:26;41.87;;;18.77;;
25327;SDS011;13279;51.300;12.394;2022-11-30T11:44:58;38.23;;;18.13;;
25327;SDS011;13279;51.300;12.394;2022-11-30T11:47:28;47.00;;;19.23;;
25327;SDS011;13279;51.300;12.394;2022-11-30T11:50:17;45.73;;;19.20;;
25327;SDS011;13279;51.300;12.394;2022-11-30T11:52:53;45.77;;;20.37;;
25327;SDS011;13279;51.300;12.394;2022-11-30T11:55:48;41.63;;;19.33;;
25327;SDS011;13279;51.300;12.394;2022-11-30T11:58:31;42.87;;;19.20;;
25327;SDS011;13279;51.300;12.394;2022-11-30T12:01:09;41.97;;;18.30;;
25327;SDS011;13279;51.300;12.394;2022-11-30T12:03:42;47.87;;;20.50;;
25327;SDS011;13279;51.300;12.394;2022-11-30T12:06:20;39.77;;;19.23;;
25327;SDS011;13279;51.300;12.394;2022-11-30T12:08:50;49.43;;;19.80;;
25327;SDS011;13279;51.300;12.394;2022-11-30T12:11:23;39.30;;;18.30;;
25327;SDS011;13279;51.300;12.394;2022-11-30T12:13:53;37.27;;;18.03;;
25327;SDS011;13279;51.300;12.394;2022-11-30T12:16:28;51.43;;;19.27;;
25327;SDS011;13279;51.300;12.394;2022-11-30T12:19:02;39.23;;;18.37;;
25327;SDS011;13279;51.300;12.394;2022-11-30T12:21:39;42.20;;;18.77;;
25327;SDS011;13279;51.300;12.394;2022-11-30T12:24:24;45.80;;;20.77;;
25327;SDS011;13279;51.300;12.394;2022-11-30T12:27:15;41.73;;;18.97;;
25327;SDS011;13279;51.300;12.394;2022-11-30T12:29:51;40.00;;;18.73;;
25327;SDS011;13279;51.300;12.394;2022-11-30T12:32:30;43.30;;;18.93;;
25327;SDS011;13279;51.300;12.394;2022-11-30T12:35:14;46.20;;;18.30;;
25327;SDS011;13279;51.300;12.394;2022-11-30T12:37:55;42.57;;;19.87;;
25327;SDS011;13279;51.300;12.394;2022-11-30T12:40:32;40.67;;;19.80;;
25327;SDS011;13279;51.300;12.394;2022-11-30T12:43:12;50.50;;;21.60;;
25327;SDS011;13279;51.300;12.394;2022-11-30T12:45:47;46.07;;;21.33;;
25327;SDS011;13279;51.300;12.394;2022-11-30T12:48:22;54.43;;;22.23;;
25327;SDS011;13279;51.300;12.394;2022-11-30T12:51:03;47.40;;;22.33;;
25327;SDS011;13279;51.300;12.394;2022-11-30T12:53:37;50.13;;;21.13;;
25327;SDS011;13279;51.300;12.394;2022-11-30T12:56:14;43.77;;;20.67;;
25327;SDS011;13279;51.300;12.394;2022-11-30T12:58:54;41.60;;;18.80;;
25327;SDS011;13279;51.300;12.394;2022-11-30T13:01:32;37.63;;;17.10;;
25327;SDS011;13279;51.300;12.394;2022-11-30T13:04:15;34.47;;;15.87;;
25327;SDS011;13279;51.300;12.394;2022-11-30T13:06:47;37.87;;;16.20;;
25327;SDS011;13279;51.300;12.394;2022-11-30T13:09:21;34.70;;;15.87;;
25327;SDS011;13279;51.300;12.394;2022-11-30T13:11:56;31.70;;;15.87;;
25327;SDS011;13279;51.300;12.394;2022-11-30T13:14:28;36.87;;;16.70;;
25327;SDS011;13279;51.300;12.394;2022-11-30T13:16:59;31.23;;;15.33;;
25327;SDS011;13279;51.300;12.394;2022-11-30T13:19:38;29.73;;;14.10;;
25327;SDS011;13279;51.300;12.394;2022-11-30T13:22:21;27.10;;;13.70;;
25327;SDS011;13279;51.300;12.394;2022-11-30T13:24:56;31.03;;;14.67;;
25327;SDS011;13279;51.300;12.394;2022-11-30T13:27:29;30.83;;;14.60;;
25327;SDS011;13279;51.300;12.394;2022-11-30T13:30:18;28.53;;;14.70;;
25327;SDS011;13279;51.300;12.394;2022-11-30T13:32:48;32.50;;;14.13;;
25327;SDS011;13279;51.300;12.394;2022-11-30T13:38:14;40.13;;;18.57;;
25327;SDS011;13279;51.300;12.394;2022-11-30T13:40:51;46.17;;;19.57;;
25327;SDS011;13279;51.300;12.394;2022-11-30T13:43:23;38.07;;;18.87;;
25327;SDS011;13279;51.300;12.394;2022-11-30T13:46:06;43.87;;;18.17;;
25327;SDS011;13279;51.300;12.394;2022-11-30T13:48:40;41.33;;;19.17;;
25327;SDS011;13279;51.300;12.394;2022-11-30T13:51:11;42.33;;;17.33;;
25327;SDS011;13279;51.300;12.394;2022-11-30T13:53:39;44.23;;;19.37;;
25327;SDS011;13279;51.300;12.394;2022-11-30T14:05:20;35.73;;;17.30;;
25327;SDS011;13279;51.300;12.394;2022-11-30T14:10:42;37.33;;;18.43;;
25327;SDS011;13279;51.300;12.394;2022-11-30T14:13:27;35.73;;;18.00;;
25327;SDS011;13279;51.300;12.394;2022-11-30T14:15:57;40.57;;;17.53;;
25327;SDS011;13279;51.300;12.394;2022-11-30T14:18:30;34.63;;;17.03;;
25327;SDS011;13279;51.300;12.394;2022-11-30T14:23:56;35.77;;;17.27;;
25327;SDS011;13279;51.300;12.394;2022-11-30T14:26:27;39.00;;;17.60;;
25327;SDS011;13279;51.300;12.394;2022-11-30T14:29:00;38.80;;;18.23;;
25327;SDS011;13279;51.300;12.394;2022-11-30T14:31:32;37.43;;;18.53;;
25327;SDS011;13279;51.300;12.394;2022-11-30T14:34:05;42.17;;;20.57;;
25327;SDS011;13279;51.300;12.394;2022-11-30T14:36:41;35.53;;;17.57;;
25327;SDS011;13279;51.300;12.394;2022-11-30T14:39:24;40.30;;;18.57;;
25327;SDS011;13279;51.300;12.394;2022-11-30T14:41:53;47.90;;;18.83;;
25327;SDS011;13279;51.300;12.394;2022-11-30T14:44:21;37.40;;;18.73;;
25327;SDS011;13279;51.300;12.394;2022-11-30T14:46:48;39.83;;;17.43;;
25327;SDS011;13279;51.300;12.394;2022-11-30T14:49:16;35.67;;;18.53;;
25327;SDS011;13279;51.300;12.394;2022-11-30T14:51:46;39.43;;;17.97;;
25327;SDS011;13279;51.300;12.394;2022-11-30T14:54:21;40.40;;;18.10;;